Time;durP1;ratioP1;P1;durP2;ratioP2;P2;SDS_P1;SDS_P2;PMS_P1;PMS_P2;Temp;Humidity;BMP_temperature;BMP_pressure;BME280_temperature;BME280_humidity;BME280_pressure;Samples;Min_cycle;Max_cycle;Signal;HPM_P1;HPM_P2
2024/01/01 00:01:43;;;;;;;146.97;68.93;;;;;;;-144.30;96.14;86495.94;5091106;28;20210;-53
2024/01/01 00:04:12;;;;;;;146.30;68.87;;;;;;;-144.30;96.11;86505.88;5091138;28;20282;-54
2024/01/01 00:06:39;;;;;;;134.10;66.23;;;;;;;-144.30;96.28;86464.13;5090706;28;20286;-54
2024/01/01 00:09:06;;;;;;;139.93;65.93;;;;;;;-144.30;95.88;86491.97;5090839;28;20209;-54
2024/01/01 00:11:33;;;;;;;141.87;68.50;;;;;;;-144.30;95.93;86478.03;5090916;28;20288;-54
2024/01/01 00:14:00;;;;;;;130.57;63.83;;;;;;;-144.30;95.51;86484.00;5091294;28;20206;-53
2024/01/01 00:16:27;;;;;;;126.70;64.50;;;;;;;-144.30;95.86;86509.84;5090868;28;20223;-53
2024/01/01 00:18:53;;;;;;;129.40;64.87;;;;;;;-144.30;96.01;86418.38;5090834;28;20310;-53
2024/01/01 00:21:22;;;;;;;145.87;68.13;;;;;;;-144.30;96.22;86537.69;5090695;28;20199;-54
2024/01/01 00:23:49;;;;;;;144.13;67.80;;;;;;;-144.30;96.08;86491.97;5090576;28;20790;-53
2024/01/01 00:26:16;;;;;;;139.80;67.97;;;;;;;-144.30;96.55;86497.94;5090917;28;20563;-54
2024/01/01 00:28:42;;;;;;;140.37;65.63;;;;;;;-144.30;96.39;86474.06;5089689;28;20278;-52
2024/01/01 00:31:09;;;;;;;145.03;67.73;;;;;;;-144.30;95.84;86472.06;5090882;28;20221;-53
2024/01/01 00:33:36;;;;;;;144.00;70.27;;;;;;;-144.30;95.81;86430.31;5090419;28;20195;-53
2024/01/01 00:36:03;;;;;;;137.43;66.83;;;;;;;-144.30;95.34;86462.13;5090362;28;20622;-52
2024/01/01 00:38:31;;;;;;;142.33;65.83;;;;;;;-144.30;95.44;86497.94;5090048;28;20199;-54
2024/01/01 00:40:58;;;;;;;130.30;66.43;;;;;;;-144.30;95.33;86468.09;5090359;28;20206;-53
2024/01/01 00:43:25;;;;;;;130.87;65.63;;;;;;;-144.30;95.54;86482.03;5090028;28;20805;-54
2024/01/01 00:45:52;;;;;;;133.40;65.03;;;;;;;-144.30;95.99;86505.88;5090321;28;20249;-54
2024/01/01 00:48:19;;;;;;;132.40;66.20;;;;;;;-144.30;95.71;86458.16;5090341;28;20195;-53
2024/01/01 00:50:46;;;;;;;137.37;66.90;;;;;;;-144.30;95.63;86521.78;5090188;28;20192;-53
2024/01/01 00:53:13;;;;;;;141.20;69.60;;;;;;;-144.30;95.56;86533.72;5090216;28;20195;-53
2024/01/01 00:55:41;;;;;;;144.90;68.93;;;;;;;-144.30;95.91;86493.94;5089799;28;20199;-54
2024/01/01 00:58:08;;;;;;;144.83;68.67;;;;;;;-144.30;96.11;86497.94;5090179;28;20592;-53
2024/01/01 01:00:35;;;;;;;139.30;67.57;;;;;;;-144.30;96.03;86476.06;5090075;28;20202;-55
2024/01/01 01:03:02;;;;;;;141.77;69.87;;;;;;;-144.30;96.00;86525.75;5090109;28;20195;-54
2024/01/01 01:05:29;;;;;;;140.50;69.23;;;;;;;-144.30;95.95;86474.06;5089608;28;20199;-54
2024/01/01 01:07:56;;;;;;;142.33;70.00;;;;;;;-144.30;96.11;86497.94;5090008;28;20278;-54
2024/01/01 01:10:23;;;;;;;159.27;72.13;;;;;;;-144.30;95.55;86493.94;5089701;28;20199;-52
2024/01/01 01:12:53;;;;;;;135.67;69.33;;;;;;;-144.30;95.67;86513.84;5089752;28;20191;-54
2024/01/01 01:15:20;;;;;;;141.03;70.07;;;;;;;-144.30;95.52;86529.75;5089683;28;20290;-53
2024/01/01 01:17:47;;;;;;;145.87;68.10;;;;;;;-144.30;95.61;86527.75;5089633;28;20223;-53
2024/01/01 01:20:14;;;;;;;148.30;69.63;;;;;;;-144.30;96.54;86547.66;5089745;28;20195;-53
2024/01/01 01:22:41;;;;;;;149.33;69.73;;;;;;;-144.30;96.54;86533.72;5089481;28;20210;-52
2024/01/01 01:25:09;;;;;;;145.73;70.70;;;;;;;-144.30;96.91;86482.03;5089637;28;20199;-54
2024/01/01 01:27:36;;;;;;;157.93;69.47;;;;;;;-144.30;96.76;86497.94;5089501;28;20199;-53
2024/01/01 01:30:05;;;;;;;136.50;67.83;;;;;;;-144.30;96.61;86507.88;5089777;28;20188;-53
2024/01/01 01:32:32;;;;;;;141.80;68.67;;;;;;;-144.30;96.50;86470.09;5089320;28;20221;-54
2024/01/01 01:34:59;;;;;;;139.67;67.60;;;;;;;-144.30;96.89;86525.75;5089567;28;20214;-53
2024/01/01 01:37:26;;;;;;;146.57;67.67;;;;;;;-144.30;97.14;86527.75;5089333;28;20381;-53
2024/01/01 01:39:53;;;;;;;142.87;66.57;;;;;;;-144.30;96.90;86509.84;5089320;28;20285;-53
2024/01/01 01:42:20;;;;;;;139.23;66.27;;;;;;;-144.30;96.80;86537.69;5089219;28;20686;-55
2024/01/01 01:44:47;;;;;;;133.57;64.10;;;;;;;-144.30;96.53;86539.69;5089195;28;20224;-54
2024/01/01 01:47:16;;;;;;;137.57;65.83;;;;;;;-144.30;96.59;86517.81;5089450;28;20191;-54
2024/01/01 01:49:43;;;;;;;139.70;66.93;;;;;;;-144.30;96.69;86549.63;5089128;28;20197;-54
2024/01/01 01:52:11;;;;;;;135.63;65.67;;;;;;;-144.30;97.22;86537.69;5089546;28;20727;-53
2024/01/01 01:54:38;;;;;;;138.13;66.93;;;;;;;-144.30;97.55;86555.59;5089545;28;20195;-55
2024/01/01 01:57:07;;;;;;;130.83;65.30;;;;;;;-144.30;98.42;86535.72;5089446;28;20215;-54
2024/01/01 01:59:34;;;;;;;136.27;68.40;;;;;;;-144.30;99.35;86533.72;5089112;28;20199;-54
2024/01/01 02:02:01;;;;;;;134.77;66.73;;;;;;;-144.30;99.19;86519.81;5089451;28;20203;-54
2024/01/01 02:04:30;;;;;;;139.30;66.17;;;;;;;-144.30;99.11;86535.72;5089231;28;20698;-54
2024/01/01 02:06:57;;;;;;;135.03;65.40;;;;;;;-144.30;98.99;86539.69;5089324;28;20191;-53
2024/01/01 02:09:24;;;;;;;138.77;67.57;;;;;;;-144.30;99.18;86529.75;5089002;28;20198;-55
2024/01/01 02:11:50;;;;;;;130.90;64.43;;;;;;;-144.30;98.88;86527.75;5089168;28;20191;-54
2024/01/01 02:14:17;;;;;;;134.63;65.47;;;;;;;-144.30;99.11;86543.66;5089105;28;20201;-54
2024/01/01 02:16:45;;;;;;;141.90;67.27;;;;;;;-144.30;98.80;86587.41;5089300;28;20245;-53
2024/01/01 02:19:19;;;;;;;128.27;65.13;;;;;;;-144.30;99.03;86561.56;5089100;28;20196;-52
2024/01/01 02:21:47;;;;;;;140.93;65.87;;;;;;;-144.30;98.81;86551.63;5089071;28;20196;-53
2024/01/01 02:24:15;;;;;;;133.63;67.40;;;;;;;-144.30;99.14;86577.47;5088976;28;20191;-54
2024/01/01 02:26:43;;;;;;;139.10;68.00;;;;;;;-144.30;99.93;86581.44;5088695;28;20260;-54
2024/01/01 02:29:10;;;;;;;151.87;67.63;;;;;;;-144.30;99.66;86557.59;5089253;28;20237;-52
2024/01/01 02:31:37;;;;;;;134.63;66.20;;;;;;;-144.30;99.95;86555.59;5088593;28;20191;-53
2024/01/01 02:34:04;;;;;;;134.97;65.50;;;;;;;-144.30;100.00;86573.50;5088976;28;20198;-54
2024/01/01 02:36:36;;;;;;;148.17;68.83;;;;;;;-144.30;100.00;86591.38;5088519;28;20566;-54
2024/01/01 02:39:03;;;;;;;141.13;68.40;;;;;;;-144.30;100.00;86547.66;5088873;28;20286;-53
2024/01/01 02:41:34;;;;;;;145.13;68.77;;;;;;;-144.30;100.00;86551.63;5088620;28;20272;-54
2024/01/01 02:44:01;;;;;;;145.07;65.47;;;;;;;-144.30;100.00;86537.69;5088733;28;20235;-54
2024/01/01 02:46:27;;;;;;;130.43;64.53;;;;;;;-144.30;100.00;86553.59;5088749;28;20586;-53
2024/01/01 02:48:54;;;;;;;132.40;64.57;;;;;;;-144.30;100.00;86569.50;5088782;28;20198;-53
2024/01/01 02:51:21;;;;;;;140.70;65.63;;;;;;;-144.30;100.00;86609.28;5090442;28;20244;-53
2024/01/01 02:53:48;;;;;;;134.27;64.20;;;;;;;-144.30;100.00;86571.50;5092402;28;20301;-54
2024/01/01 02:56:19;;;;;;;133.07;64.73;;;;;;;-144.30;100.00;86627.19;5092415;28;20195;-53
2024/01/01 02:58:48;;;;;;;140.23;65.47;;;;;;;-144.30;100.00;86567.53;5092412;28;20257;-53
2024/01/01 03:01:15;;;;;;;133.53;65.03;;;;;;;-144.30;100.00;86577.47;5092684;28;20250;-53
2024/01/01 03:03:42;;;;;;;133.60;63.17;;;;;;;-144.30;100.00;86581.44;5092429;28;20266;-53
2024/01/01 03:06:09;;;;;;;133.27;63.27;;;;;;;-144.30;100.00;86563.56;5092355;28;20697;-54
2024/01/01 03:08:37;;;;;;;134.27;65.10;;;;;;;-144.30;100.00;86595.38;5091938;28;20192;-53
2024/01/01 03:11:05;;;;;;;138.47;66.17;;;;;;;-144.30;100.00;86563.56;5092335;28;20630;-53
2024/01/01 03:13:32;;;;;;;146.73;66.23;;;;;;;-144.30;100.00;86605.31;5091985;28;20240;-52
2024/01/01 03:16:01;;;;;;;134.93;65.00;;;;;;;-144.30;100.00;86585.44;5092632;28;20195;-54
2024/01/01 03:18:28;;;;;;;131.73;66.03;;;;;;;-144.30;100.00;86573.50;5091812;28;20223;-53
2024/01/01 03:20:55;;;;;;;133.03;65.13;;;;;;;-144.30;100.00;86507.88;5092389;28;20201;-53
2024/01/01 03:23:22;;;;;;;137.90;66.17;;;;;;;-144.30;100.00;86567.53;5092011;28;20218;-54
2024/01/01 03:25:49;;;;;;;140.63;67.17;;;;;;;-144.30;100.00;86585.44;5092047;28;20203;-54
2024/01/01 03:28:16;;;;;;;141.77;66.77;;;;;;;-144.30;100.00;86597.34;5092080;28;20194;-53
2024/01/01 03:30:43;;;;;;;137.57;68.73;;;;;;;-144.30;100.00;86605.31;5091665;28;20198;-53
2024/01/01 03:33:12;;;;;;;137.73;65.60;;;;;;;-144.30;100.00;86549.63;5091944;28;20583;-53
2024/01/01 03:35:38;;;;;;;140.60;67.57;;;;;;;-144.30;100.00;86541.69;5090867;28;20678;-53
2024/01/01 03:38:05;;;;;;;137.47;66.10;;;;;;;-144.30;99.28;86577.47;5091274;28;20534;-53
2024/01/01 03:40:32;;;;;;;135.27;67.50;;;;;;;-144.30;99.37;86585.44;5090999;28;20191;-52
2024/01/01 03:43:01;;;;;;;142.67;66.03;;;;;;;-144.30;100.00;86585.44;5090776;28;20255;-53
2024/01/01 03:45:28;;;;;;;138.23;68.23;;;;;;;-144.30;100.00;86565.53;5087992;28;20217;-53
2024/01/01 03:47:54;;;;;;;141.83;66.50;;;;;;;-144.30;100.00;86569.50;5090849;28;20187;-54
2024/01/01 03:50:23;;;;;;;150.00;69.53;;;;;;;-144.30;100.00;86593.38;5087909;28;20210;-54
2024/01/01 03:52:50;;;;;;;134.70;65.83;;;;;;;-144.30;100.00;86581.44;5088306;28;20659;-53
2024/01/01 03:55:17;;;;;;;138.80;65.50;;;;;;;-144.30;100.00;86589.41;5090704;28;20334;-53
2024/01/01 03:57:44;;;;;;;136.63;65.67;;;;;;;-144.30;100.00;86593.38;5088932;28;20215;-54
2024/01/01 04:00:13;;;;;;;127.27;62.57;;;;;;;-144.30;100.00;86597.34;5090062;28;20231;-53
2024/01/01 04:02:40;;;;;;;128.50;63.57;;;;;;;-144.30;100.00;86613.28;5089989;28;20199;-53
2024/01/01 04:05:09;;;;;;;128.40;62.00;;;;;;;-144.30;100.00;86529.75;5090525;28;20579;-53
2024/01/01 04:07:37;;;;;;;135.00;63.77;;;;;;;-144.30;100.00;86555.59;5090449;28;20191;-52
2024/01/01 04:10:06;;;;;;;133.20;62.77;;;;;;;-144.30;100.00;86601.34;5090515;28;20206;-54
2024/01/01 04:12:33;;;;;;;127.70;63.53;;;;;;;-144.30;100.00;86589.41;5090317;28;20286;-54
2024/01/01 04:15:00;;;;;;;125.97;61.97;;;;;;;-144.30;100.00;86579.47;5087705;28;20283;-53
2024/01/01 04:17:27;;;;;;;134.93;63.17;;;;;;;-144.30;100.00;86605.31;5090051;28;20245;-53
2024/01/01 04:19:54;;;;;;;136.57;63.67;;;;;;;-144.30;100.00;86589.41;5090169;28;20202;-54
2024/01/01 04:22:20;;;;;;;124.77;61.27;;;;;;;-144.30;100.00;86587.41;5089693;28;20451;-53
2024/01/01 04:24:49;;;;;;;133.10;61.40;;;;;;;-144.30;100.00;86603.31;5088729;28;20202;-54
2024/01/01 04:27:17;;;;;;;132.27;62.23;;;;;;;-144.30;100.00;86591.38;5090363;28;20275;-54
2024/01/01 04:29:43;;;;;;;122.37;57.70;;;;;;;-144.30;100.00;86623.22;5090527;28;20687;-54
2024/01/01 04:32:10;;;;;;;121.83;60.87;;;;;;;-144.30;100.00;86611.28;5090591;28;20210;-53
2024/01/01 04:34:37;;;;;;;119.90;57.83;;;;;;;-144.30;100.00;86617.25;5090393;28;20208;-54
2024/01/01 04:37:04;;;;;;;109.60;57.40;;;;;;;-144.30;100.00;86613.28;5090494;28;20199;-53
2024/01/01 04:39:31;;;;;;;118.20;57.30;;;;;;;-144.30;100.00;86581.44;5090319;28;20294;-53
2024/01/01 04:41:59;;;;;;;122.70;57.00;;;;;;;-144.30;100.00;86581.44;5090428;28;20206;-54
2024/01/01 04:44:26;;;;;;;119.97;57.50;;;;;;;-144.30;100.00;86585.44;5090211;28;20611;-53
2024/01/01 04:46:56;;;;;;;110.07;55.97;;;;;;;-144.30;100.00;86388.56;5090355;28;20249;-53
2024/01/01 04:49:23;;;;;;;111.37;54.00;;;;;;;-144.30;100.00;86625.19;5090218;28;20210;-53
2024/01/01 04:51:50;;;;;;;105.77;50.87;;;;;;;-144.30;100.00;86619.22;5090483;28;20512;-54
2024/01/01 04:54:17;;;;;;;101.93;51.63;;;;;;;-144.30;100.00;86581.44;5090440;28;20234;-53
2024/01/01 04:56:44;;;;;;;106.20;50.80;;;;;;;-144.30;100.00;86607.31;5089970;28;20201;-53
2024/01/01 04:59:13;;;;;;;90.33;46.23;;;;;;;-144.30;100.00;86653.03;5090342;28;20733;-54
2024/01/01 05:01:39;;;;;;;76.90;41.60;;;;;;;-144.30;100.00;86585.44;5089909;28;20194;-54
2024/01/01 05:04:06;;;;;;;74.67;39.47;;;;;;;-144.30;100.00;86589.41;5090196;28;20205;-53
2024/01/01 05:06:33;;;;;;;78.83;40.57;;;;;;;-144.30;100.00;86589.41;5090027;28;20565;-53
2024/01/01 05:09:00;;;;;;;83.63;42.27;;;;;;;-144.30;100.00;86615.25;5090113;28;20198;-54
2024/01/01 05:11:29;;;;;;;73.53;37.17;;;;;;;-144.30;100.00;86629.19;5089609;28;20199;-53
2024/01/01 05:13:56;;;;;;;69.73;36.53;;;;;;;-144.30;100.00;86621.22;5089656;28;20201;-53
2024/01/01 05:16:24;;;;;;;77.50;38.90;;;;;;;-144.30;100.00;86641.09;5090089;28;20667;-54
2024/01/01 05:18:51;;;;;;;74.10;35.77;;;;;;;-144.30;100.00;86595.38;5089949;28;20235;-54
2024/01/01 05:21:18;;;;;;;69.50;34.40;;;;;;;-144.30;100.00;86605.31;5089759;28;20195;-53
2024/01/01 05:23:45;;;;;;;63.83;33.93;;;;;;;-144.30;100.00;86633.16;5089613;28;20203;-54
2024/01/01 05:26:12;;;;;;;72.33;33.70;;;;;;;-144.30;100.00;86637.13;5089728;28;20627;-54
2024/01/01 05:28:39;;;;;;;64.50;34.93;;;;;;;-144.30;100.00;86641.09;5089834;28;20673;-52
2024/01/01 05:31:05;;;;;;;58.43;33.13;;;;;;;-144.30;100.00;86557.59;5089696;28;20195;-53
2024/01/01 05:33:34;;;;;;;64.93;33.47;;;;;;;-144.30;100.00;86645.09;5089713;28;20205;-52
2024/01/01 05:36:01;;;;;;;55.97;32.87;;;;;;;-144.30;100.00;86629.19;5089559;28;20212;-53
2024/01/01 05:38:29;;;;;;;54.70;28.97;;;;;;;-144.30;100.00;86637.13;5089261;28;20703;-54
2024/01/01 05:40:56;;;;;;;57.93;31.93;;;;;;;-144.30;100.00;86637.13;5089861;28;20196;-53
2024/01/01 05:43:22;;;;;;;62.30;31.17;;;;;;;-144.30;100.00;86649.06;5089230;28;20230;-52
2024/01/01 05:45:49;;;;;;;53.30;29.90;;;;;;;-144.30;100.00;86595.38;5084107;28;20199;-53
2024/01/01 05:48:16;;;;;;;58.87;30.90;;;;;;;-144.30;100.00;86617.25;5087381;28;20197;-53
2024/01/01 05:50:45;;;;;;;56.47;30.83;;;;;;;-144.30;100.00;86653.03;5087149;28;20199;-54
2024/01/01 05:53:11;;;;;;;58.80;32.47;;;;;;;-144.30;100.00;86627.19;5087210;28;20613;-54
2024/01/01 05:55:38;;;;;;;54.87;31.77;;;;;;;-144.30;100.00;86613.28;5087137;28;20202;-54
2024/01/01 05:58:05;;;;;;;60.77;32.67;;;;;;;-144.30;100.00;86627.19;5087508;28;20211;-54
2024/01/01 06:00:36;;;;;;;59.83;33.33;;;;;;;-144.30;100.00;86605.31;5086213;28;20602;-54
2024/01/01 06:03:04;;;;;;;64.73;34.47;;;;;;;-144.30;100.00;86617.25;5087379;28;20694;-54
2024/01/01 06:05:33;;;;;;;61.13;34.27;;;;;;;-144.30;100.00;86615.25;5085918;28;20195;-53
2024/01/01 06:08:02;;;;;;;61.83;33.60;;;;;;;-144.30;100.00;86587.41;5089370;28;20210;-54
2024/01/01 06:10:29;;;;;;;65.40;35.13;;;;;;;-144.30;100.00;86629.19;5087864;28;20199;-54
2024/01/01 06:12:57;;;;;;;65.43;34.20;;;;;;;-144.30;100.00;86623.22;5088182;28;20278;-54
2024/01/01 06:15:24;;;;;;;69.23;35.60;;;;;;;-144.30;100.00;86621.22;5083553;28;20355;-53
2024/01/01 06:17:52;;;;;;;68.50;35.37;;;;;;;-144.30;100.00;86617.25;5086892;28;20222;-53
2024/01/01 06:20:19;;;;;;;67.10;35.30;;;;;;;-144.30;100.00;86599.34;5086608;28;20684;-54
2024/01/01 06:22:47;;;;;;;66.13;36.27;;;;;;;-144.30;100.00;86633.16;5087906;28;20207;-53
2024/01/01 06:25:16;;;;;;;66.67;36.33;;;;;;;-144.30;100.00;86668.94;5089014;28;20198;-53
2024/01/01 06:27:43;;;;;;;68.07;34.57;;;;;;;-144.30;100.00;86615.25;5092395;28;20645;-53
2024/01/01 06:30:10;;;;;;;67.23;34.40;;;;;;;-144.30;100.00;86609.28;5092310;28;20682;-53
2024/01/01 06:32:37;;;;;;;60.73;32.63;;;;;;;-144.30;99.82;86641.09;5092247;28;20651;-54
2024/01/01 06:35:04;;;;;;;59.30;34.13;;;;;;;-144.30;100.00;86609.28;5092658;28;20659;-54
2024/01/01 06:37:31;;;;;;;66.03;34.80;;;;;;;-144.30;99.54;86593.38;5091516;28;20213;-55
2024/01/01 06:39:58;;;;;;;57.53;32.93;;;;;;;-144.30;99.37;86609.28;5091914;28;20218;-53
2024/01/01 06:42:26;;;;;;;62.43;31.40;;;;;;;-144.30;98.94;86597.34;5090639;28;20285;-53
2024/01/01 06:44:57;;;;;;;61.30;32.87;;;;;;;-144.30;98.33;86595.38;5092910;28;20620;-53
2024/01/01 06:47:25;;;;;;;53.53;29.80;;;;;;;-144.30;98.63;86557.59;5092384;28;20257;-54
2024/01/01 06:49:52;;;;;;;50.87;28.47;;;;;;;-144.30;97.99;86593.38;5092550;28;20209;-54
2024/01/01 06:52:19;;;;;;;58.20;29.20;;;;;;;-144.30;98.28;86583.44;5092809;28;20534;-54
2024/01/01 06:54:46;;;;;;;47.93;28.73;;;;;;;-144.30;97.68;86549.63;5092124;28;20222;-54
2024/01/01 06:57:12;;;;;;;50.00;28.47;;;;;;;-144.30;97.54;86573.50;5092514;28;20282;-53
2024/01/01 06:59:41;;;;;;;54.03;28.83;;;;;;;-144.30;96.46;86593.38;5092079;28;20225;-54
2024/01/01 07:02:08;;;;;;;53.00;28.87;;;;;;;-144.30;96.45;86555.59;5092702;28;20686;-54
2024/01/01 07:04:34;;;;;;;46.13;27.03;;;;;;;-144.30;97.07;86565.53;5092346;28;20203;-54
2024/01/01 07:07:03;;;;;;;49.83;26.93;;;;;;;-144.30;97.24;86605.31;5092236;28;20195;-53
2024/01/01 07:09:30;;;;;;;49.70;26.47;;;;;;;-144.30;96.93;86553.59;5092139;28;20272;-53
2024/01/01 07:11:57;;;;;;;39.40;24.40;;;;;;;-144.30;95.88;86553.59;5092220;28;20199;-52
2024/01/01 07:14:24;;;;;;;41.87;23.37;;;;;;;-144.30;96.21;86414.41;5091245;28;20195;-53
2024/01/01 07:16:54;;;;;;;42.67;23.73;;;;;;;-144.30;96.31;86549.63;5092064;28;20302;-54
2024/01/01 07:19:21;;;;;;;42.50;23.73;;;;;;;-144.30;96.11;86577.47;5092193;28;20222;-54
2024/01/01 07:21:48;;;;;;;43.67;22.93;;;;;;;-144.30;96.15;86571.50;5087007;28;20204;-54
2024/01/01 07:24:15;;;;;;;45.17;22.67;;;;;;;-144.30;96.28;86567.53;5091378;28;20579;-54
2024/01/01 07:26:42;;;;;;;39.17;22.43;;;;;;;-144.30;96.08;86565.53;5088948;28;20555;-52
2024/01/01 07:29:09;;;;;;;41.43;23.23;;;;;;;-144.30;96.27;86583.44;5090731;28;20714;-53
2024/01/01 07:31:36;;;;;;;34.60;21.87;;;;;;;-144.30;96.30;86541.69;5091394;28;20285;-53
2024/01/01 07:34:05;;;;;;;43.10;22.63;;;;;;;-144.30;95.65;86525.75;5090467;28;20595;-53
2024/01/01 07:36:32;;;;;;;32.00;20.23;;;;;;;-144.30;94.98;86559.56;5089783;28;20203;-55
2024/01/01 07:38:59;;;;;;;33.67;20.67;;;;;;;-144.30;94.96;86569.50;5090831;28;20545;-53
2024/01/01 07:41:26;;;;;;;32.77;19.70;;;;;;;-144.30;94.70;86533.72;5088177;28;20768;-54
2024/01/01 07:43:53;;;;;;;36.07;20.77;;;;;;;-144.30;93.95;86511.84;5090682;28;20235;-53
2024/01/01 07:46:20;;;;;;;32.97;20.33;;;;;;;-144.30;93.66;86557.59;5091228;28;20702;-54
2024/01/01 07:48:47;;;;;;;30.70;20.30;;;;;;;-144.30;93.23;86497.94;5091144;28;20241;-54
2024/01/01 07:51:15;;;;;;;36.03;20.93;;;;;;;-144.30;93.45;86523.78;5089823;28;20329;-52
2024/01/01 07:53:43;;;;;;;36.80;22.03;;;;;;;-144.30;92.97;86486.00;5091201;28;20201;-54
2024/01/01 07:56:10;;;;;;;40.33;22.37;;;;;;;-144.30;92.74;86521.78;5091205;28;20199;-54
2024/01/01 07:58:37;;;;;;;41.00;22.83;;;;;;;-144.30;92.30;86489.97;5090914;28;20267;-53
2024/01/01 08:01:04;;;;;;;35.53;21.53;;;;;;;-144.30;92.63;86563.56;5091135;28;20195;-54
2024/01/01 08:03:31;;;;;;;40.97;21.33;;;;;;;-144.30;93.16;86491.97;5091431;28;20674;-54
2024/01/01 08:05:58;;;;;;;39.90;23.27;;;;;;;-144.30;92.08;86499.91;5091234;28;20195;-52
2024/01/01 08:08:26;;;;;;;40.13;22.23;;;;;;;-144.30;92.39;86545.66;5090684;28;20731;-54
2024/01/01 08:10:54;;;;;;;38.27;22.70;;;;;;;-144.30;93.10;86509.84;5090811;28;20230;-54
2024/01/01 08:13:21;;;;;;;39.57;24.23;;;;;;;-144.30;93.10;86499.91;5091243;28;20665;-51
2024/01/01 08:15:48;;;;;;;44.40;24.63;;;;;;;-144.30;92.60;86487.97;5090896;28;20203;-53
2024/01/01 08:18:14;;;;;;;46.00;26.77;;;;;;;-144.30;92.40;86505.88;5090750;28;20195;-55
2024/01/01 08:20:41;;;;;;;41.47;25.63;;;;;;;-144.30;92.60;86499.91;5090225;28;20210;-53
2024/01/01 08:23:08;;;;;;;45.97;26.17;;;;;;;-144.30;92.27;86497.94;5090785;28;20591;-53
2024/01/01 08:25:39;;;;;;;42.33;25.87;;;;;;;-144.30;92.17;86458.16;5090795;28;20227;-54
2024/01/01 08:28:06;;;;;;;39.67;24.53;;;;;;;-144.30;91.37;86480.03;5090838;28;20191;-53
2024/01/01 08:30:33;;;;;;;44.07;24.87;;;;;;;-144.30;91.32;86470.09;5090522;28;20205;-53
2024/01/01 08:33:00;;;;;;;41.77;25.40;;;;;;;-144.30;91.47;86450.19;5090760;28;20202;-54
2024/01/01 08:35:27;;;;;;;40.73;25.30;;;;;;;-144.30;90.76;86470.09;5090398;28;20666;-54
2024/01/01 08:37:54;;;;;;;39.97;24.20;;;;;;;-144.30;91.43;86422.38;5090891;28;20576;-55
2024/01/01 08:40:21;;;;;;;45.27;24.43;;;;;;;-144.30;91.03;86474.06;5090881;28;20227;-55
2024/01/01 08:42:50;;;;;;;45.43;24.77;;;;;;;-144.30;91.45;86458.16;5090635;28;20607;-53
2024/01/01 08:45:19;;;;;;;43.70;25.00;;;;;;;-144.30;91.14;86472.06;5090641;28;20278;-53
2024/01/01 08:47:46;;;;;;;35.77;22.80;;;;;;;-144.30;90.94;86436.28;5089836;28;20203;-55
2024/01/01 08:50:14;;;;;;;37.63;23.43;;;;;;;-144.30;90.19;86426.34;5090176;28;20191;-54
2024/01/01 08:52:42;;;;;;;34.90;22.93;;;;;;;-144.30;89.59;86416.41;5089981;28;20634;-54
2024/01/01 08:55:10;;;;;;;40.03;22.30;;;;;;;-144.30;90.10;86472.06;5090337;28;20290;-56
2024/01/01 08:57:38;;;;;;;41.17;25.17;;;;;;;-144.30;89.85;86414.41;5090314;28;20280;-53
2024/01/01 09:00:08;;;;;;;38.13;23.93;;;;;;;-144.30;89.75;86489.97;5090522;28;20215;-57
2024/01/01 09:02:35;;;;;;;43.33;26.60;;;;;;;-144.30;90.13;86420.38;5089866;28;20252;-53
2024/01/01 09:05:01;;;;;;;42.53;25.40;;;;;;;-144.30;89.64;86426.34;5089460;28;20188;-54
2024/01/01 09:07:28;;;;;;;41.47;26.43;;;;;;;-144.30;90.00;86394.53;5089676;28;20209;-52
2024/01/01 09:09:55;;;;;;;43.70;24.93;;;;;;;-144.30;90.05;86426.34;5089575;28;20187;-54
2024/01/01 09:12:23;;;;;;;38.20;23.67;;;;;;;-144.30;89.42;86392.53;5089637;28;20201;-55
2024/01/01 09:14:50;;;;;;;32.97;21.63;;;;;;;-144.30;89.22;86368.66;5089980;28;20200;-54
2024/01/01 09:17:19;;;;;;;36.43;22.43;;;;;;;-144.30;89.27;86398.50;5089741;28;20195;-53
2024/01/01 09:19:46;;;;;;;27.03;18.43;;;;;;;-144.30;89.08;86386.56;5089516;28;20218;-53
2024/01/01 09:22:13;;;;;;;28.07;16.77;;;;;;;-144.30;89.50;86382.59;5089968;28;20287;-53
2024/01/01 09:24:42;;;;;;;27.80;16.97;;;;;;;-144.30;89.71;86394.53;5070549;28;20218;-54
2024/01/01 09:27:08;;;;;;;20.40;15.13;;;;;;;-144.30;89.18;86380.59;5089850;28;20191;-53
2024/01/01 09:29:36;;;;;;;26.63;16.63;;;;;;;-144.30;89.07;86426.34;5089576;28;20282;-53
2024/01/01 09:32:04;;;;;;;35.43;21.20;;;;;;;-144.30;89.14;86414.41;5089280;28;20620;-54
2024/01/01 09:34:32;;;;;;;29.43;16.97;;;;;;;-144.30;90.25;86380.59;5089594;28;20274;-53
2024/01/01 09:36:59;;;;;;;40.17;23.27;;;;;;;-144.30;89.83;86384.59;5089463;28;20724;-54
2024/01/01 09:39:26;;;;;;;27.87;15.77;;;;;;;-144.30;89.52;86334.88;5089464;28;20225;-52
2024/01/01 09:41:53;;;;;;;24.77;15.77;;;;;;;-144.30;89.41;86400.50;5089261;28;20218;-54
2024/01/01 09:44:20;;;;;;;24.77;15.20;;;;;;;-144.30;89.42;86378.63;5088939;28;20233;-54
2024/01/01 09:46:47;;;;;;;23.53;14.37;;;;;;;-144.30;89.23;86374.63;5089153;28;20282;-54
2024/01/01 09:49:14;;;;;;;24.90;16.23;;;;;;;-144.30;88.92;86376.63;5089350;28;20203;-54
2024/01/01 09:51:42;;;;;;;22.47;15.33;;;;;;;-144.30;88.75;86368.66;5089214;28;20227;-55
2024/01/01 09:54:09;;;;;;;24.03;15.43;;;;;;;-144.30;88.16;86382.59;5084800;28;20209;-54
2024/01/01 09:56:36;;;;;;;22.20;13.93;;;;;;;-144.30;88.02;86060.47;5089157;28;20570;-53
2024/01/01 09:59:03;;;;;;;42.97;29.40;;;;;;;-144.30;87.61;86366.69;5088748;28;20215;-55
2024/01/01 10:01:33;;;;;;;36.23;21.40;;;;;;;-144.30;87.03;86368.66;5092830;28;20294;-57
2024/01/01 10:04:03;;;;;;;22.93;15.30;;;;;;;-144.30;86.58;86311.00;5096542;28;20211;-55
2024/01/01 10:06:30;;;;;;;23.73;15.53;;;;;;;-144.30;86.92;86350.78;5093085;28;20230;-54
2024/01/01 10:09:07;;;;;;;27.93;17.07;;;;;;;-144.30;86.51;86322.94;5092374;28;20195;-53
2024/01/01 10:11:34;;;;;;;27.37;16.13;;;;;;;-144.30;86.18;86299.06;5092873;28;20206;-54
2024/01/01 10:14:04;;;;;;;28.37;17.20;;;;;;;-144.30;86.34;86340.84;5093540;28;20219;-54
2024/01/01 10:16:32;;;;;;;24.63;17.33;;;;;;;-144.30;86.29;86277.19;5093125;28;20225;-53
2024/01/01 10:19:00;;;;;;;30.07;17.90;;;;;;;-144.30;86.20;86320.94;5092893;28;20219;-53
2024/01/01 10:21:29;;;;;;;30.83;18.87;;;;;;;-144.30;86.46;86303.06;5092946;28;20666;-54
2024/01/01 10:23:56;;;;;;;32.13;18.90;;;;;;;-144.30;86.55;86326.91;5092197;28;20200;-53
2024/01/01 10:26:24;;;;;;;34.03;19.53;;;;;;;-144.30;86.39;86281.19;5093097;28;20682;-53
2024/01/01 10:28:52;;;;;;;33.67;19.67;;;;;;;-144.30;86.01;86295.09;5092858;28;20195;-53
2024/01/01 10:31:19;;;;;;;31.63;20.17;;;;;;;-144.30;86.10;86217.56;5092833;28;20198;-54
2024/01/01 10:33:49;;;;;;;31.30;20.03;;;;;;;-144.30;85.88;86239.44;5092547;28;20286;-53
2024/01/01 10:36:19;;;;;;;34.90;22.80;;;;;;;-144.30;85.67;86239.44;5091988;28;20210;-53
2024/01/01 10:38:50;;;;;;;35.43;23.23;;;;;;;-144.30;85.83;86235.44;5091364;28;20641;-54
2024/01/01 10:41:18;;;;;;;34.67;21.67;;;;;;;-144.30;85.65;86239.44;5092386;28;20203;-53
2024/01/01 10:43:47;;;;;;;32.10;20.77;;;;;;;-144.30;85.40;86267.25;5091883;28;20241;-54
2024/01/01 10:46:14;;;;;;;34.50;21.90;;;;;;;-144.30;84.81;86195.69;5092440;28;20206;-54
2024/01/01 10:48:44;;;;;;;36.53;23.17;;;;;;;-144.30;84.29;86223.50;5091923;28;20278;-55
2024/01/01 10:51:29;;;;;;;36.10;22.20;;;;;;;-144.30;83.26;86203.63;5092303;28;20233;-55
2024/01/01 10:54:19;;;;;;;34.03;22.63;;;;;;;-144.30;82.83;86193.69;5091550;28;20206;-54
2024/01/01 10:56:57;;;;;;;36.67;23.03;;;;;;;-144.30;83.00;86030.66;5092094;28;20199;-53